createdAt,value
2023-02-22T00:02:42.123Z,101765.00
2023-02-22T00:05:17.226Z,101757.09
2023-02-22T00:07:45.119Z,101749.22
2023-02-22T00:10:23.081Z,101753.31
2023-02-22T00:13:00.389Z,101747.25
2023-02-22T00:15:30.265Z,101737.69
2023-02-22T00:18:00.319Z,101740.16
2023-02-22T00:20:30.936Z,101746.31
2023-02-22T00:23:02.098Z,101734.00
2023-02-22T00:25:36.104Z,101738.41
2023-02-22T00:28:05.306Z,101742.75
2023-02-22T00:30:34.225Z,101738.47
2023-02-22T00:33:02.397Z,101732.53
2023-02-22T00:35:34.157Z,101729.81
2023-02-22T00:38:04.579Z,101734.59
2023-02-22T00:40:36.266Z,101732.16
2023-02-22T00:43:07.861Z,101735.63
2023-02-22T00:45:37.088Z,101732.75
2023-02-22T00:48:06.931Z,101733.72
2023-02-22T00:50:35.165Z,101736.28
2023-02-22T00:53:08.408Z,101738.88
2023-02-22T00:55:41.409Z,101737.78
2023-02-22T00:58:16.810Z,101736.94
2023-02-22T01:00:48.038Z,101733.16
2023-02-22T01:03:18.808Z,101731.69
2023-02-22T01:05:50.627Z,101730.91
2023-02-22T01:08:33.152Z,101735.09
2023-02-22T01:11:00.522Z,101736.78
2023-02-22T01:13:50.918Z,101728.41
2023-02-22T01:16:33.772Z,101730.13
2023-02-22T01:19:14.729Z,101733.53
2023-02-22T01:21:45.538Z,101738.03
2023-02-22T01:24:34.057Z,101729.94
2023-02-22T01:27:04.993Z,101725.56
2023-02-22T01:29:49.329Z,101718.50
2023-02-22T01:32:21.094Z,101721.13
2023-02-22T01:34:49.838Z,101718.50
2023-02-22T01:37:27.795Z,101719.50
2023-02-22T01:40:10.153Z,101714.16
2023-02-22T01:42:41.309Z,101711.41
2023-02-22T01:45:30.682Z,101710.53
2023-02-22T01:48:22.606Z,101714.16
2023-02-22T01:51:13.038Z,101721.09
2023-02-22T01:54:09.639Z,101715.91
2023-02-22T01:56:40.816Z,101713.28
2023-02-22T02:02:25.447Z,101710.59
2023-02-22T02:04:56.690Z,101707.06
2023-02-22T02:07:25.076Z,101700.06
2023-02-22T02:10:00.455Z,101692.19
2023-02-22T02:12:34.594Z,101691.22
2023-02-22T02:15:18.618Z,101699.06
2023-02-22T02:17:47.682Z,101698.22
2023-02-22T02:20:24.304Z,101692.09
2023-02-22T02:23:30.044Z,101691.22
2023-02-22T02:26:15.413Z,101685.09
2023-02-22T02:28:42.757Z,101680.06
2023-02-22T02:31:37.196Z,101685.94
2023-02-22T02:34:33.376Z,101677.28
2023-02-22T02:37:11.986Z,101669.56
2023-02-22T02:39:53.846Z,101666.06
2023-02-22T02:42:28.189Z,101660.88
2023-02-22T02:45:10.278Z,101653.78
2023-02-22T02:47:55.964Z,101645.00
2023-02-22T02:50:46.453Z,101652.84
2023-02-22T02:53:17.392Z,101644.06
2023-02-22T02:55:50.234Z,101640.53
2023-02-22T02:58:23.552Z,101639.81
2023-02-22T03:00:57.497Z,101644.06
2023-02-22T03:03:40.908Z,101637.00
2023-02-22T03:06:33.164Z,101632.59
2023-02-22T03:09:43.782Z,101627.41
2023-02-22T03:12:32.829Z,101620.22
2023-02-22T03:15:47.238Z,101625.56
2023-02-22T03:18:33.611Z,101630.66
2023-02-22T03:21:24.224Z,101646.38
2023-02-22T03:24:27.185Z,101639.25
2023-02-22T03:27:06.294Z,101632.19
2023-02-22T03:29:44.742Z,101649.63
2023-02-22T03:32:20.746Z,101650.41
2023-02-22T03:34:57.097Z,101647.53
2023-02-22T03:37:34.259Z,101658.22
2023-02-22T03:40:14.626Z,101653.16
2023-02-22T03:42:55.269Z,101641.78
2023-02-22T03:45:29.167Z,101633.91
2023-02-22T03:48:14.717Z,101646.09
2023-02-22T03:50:49.302Z,101633.06
2023-02-22T03:53:26.292Z,101630.28
2023-02-22T03:55:59.429Z,101622.44
2023-02-22T03:58:33.192Z,101624.06
2023-02-22T04:01:00.587Z,101618.06
2023-02-22T04:03:29.068Z,101617.94
2023-02-22T04:05:56.405Z,101617.13
2023-02-22T04:08:24.682Z,101612.59
2023-02-22T04:10:52.097Z,101620.47
2023-02-22T04:13:22.684Z,101623.25
2023-02-22T04:15:54.257Z,101631.78
2023-02-22T04:18:26.940Z,101632.50
2023-02-22T04:20:57.016Z,101647.25
2023-02-22T04:23:44.467Z,101633.28
2023-02-22T04:26:12.568Z,101637.41
2023-02-22T04:28:40.350Z,101636.50
2023-02-22T04:31:17.631Z,101645.19
2023-02-22T04:33:45.446Z,101629.56
2023-02-22T04:36:16.784Z,101633.03
2023-02-22T04:38:47.401Z,101640.00
2023-02-22T04:41:15.028Z,101643.50
2023-02-22T04:43:42.547Z,101634.69
2023-02-22T04:46:19.415Z,101636.50
2023-02-22T04:48:46.705Z,101629.41
2023-02-22T04:51:16.443Z,101631.16
2023-02-22T04:54:04.360Z,101631.91
2023-02-22T04:56:47.125Z,101641.50
2023-02-22T04:59:19.764Z,101643.19
2023-02-22T05:01:54.214Z,101653.56
2023-02-22T05:04:23.756Z,101645.72
2023-02-22T05:06:56.749Z,101644.72
2023-02-22T05:09:37.066Z,101640.25
2023-02-22T05:12:04.924Z,101642.06
2023-02-22T05:14:32.178Z,101641.13
2023-02-22T05:16:59.786Z,101645.41
2023-02-22T05:19:27.160Z,101642.75
2023-02-22T05:22:06.523Z,101645.34
2023-02-22T05:24:38.307Z,101647.84
2023-02-22T05:27:07.996Z,101646.88
2023-02-22T05:29:41.945Z,101652.97
2023-02-22T05:32:09.276Z,101655.44
2023-02-22T05:34:51.684Z,101652.66
2023-02-22T05:37:28.872Z,101654.34
2023-02-22T05:40:01.822Z,101658.63
2023-02-22T05:42:29.158Z,101663.81
2023-02-22T05:45:10.761Z,101663.63
2023-02-22T05:47:49.580Z,101660.25
2023-02-22T05:53:09.207Z,101670.78
2023-02-22T05:55:42.346Z,101668.03
2023-02-22T05:58:12.892Z,101668.03
2023-02-22T06:00:47.135Z,101659.28
2023-02-22T06:03:39.559Z,101664.53
2023-02-22T06:06:15.683Z,101662.88
2023-02-22T06:08:46.515Z,101670.78
2023-02-22T06:11:17.238Z,101671.53
2023-02-22T06:13:54.107Z,101670.53
2023-02-22T06:16:27.774Z,101667.94
2023-02-22T06:18:57.721Z,101673.94
2023-02-22T06:21:28.169Z,101673.66
2023-02-22T06:24:02.861Z,101673.66
2023-02-22T06:26:55.753Z,101670.91
2023-02-22T06:29:24.572Z,101674.38
2023-02-22T06:31:52.299Z,101679.59
2023-02-22T06:34:28.369Z,101679.38
2023-02-22T06:37:00.856Z,101687.22
2023-02-22T06:39:35.449Z,101676.81
2023-02-22T06:42:10.460Z,101681.16
2023-02-22T06:44:37.643Z,101675.94
2023-02-22T06:47:10.601Z,101674.38
2023-02-22T06:49:37.854Z,101677.94
2023-02-22T06:52:07.018Z,101680.63
2023-02-22T06:54:40.019Z,101678.63
2023-02-22T06:57:10.413Z,101688.25
2023-02-22T06:59:43.109Z,101686.47
2023-02-22T07:02:24.022Z,101686.38
2023-02-22T07:05:03.374Z,101686.28
2023-02-22T07:07:30.614Z,101697.78
2023-02-22T07:12:43.221Z,101699.41
2023-02-22T07:15:26.060Z,101693.53
2023-02-22T07:18:11.482Z,101702.97
2023-02-22T07:20:44.559Z,101695.25
2023-02-22T07:23:23.295Z,101694.53
2023-02-22T07:28:43.589Z,101701.63
2023-02-22T07:31:11.851Z,101694.78
2023-02-22T07:33:41.941Z,101699.31
2023-02-22T07:36:13.977Z,101704.81
2023-02-22T07:38:41.286Z,101706.59
2023-02-22T07:41:11.706Z,101710.16
2023-02-22T07:43:48.503Z,101713.88
2023-02-22T07:46:41.972Z,101715.63
2023-02-22T07:49:15.155Z,101713.22
2023-02-22T07:51:42.737Z,101726.38
2023-02-22T07:54:10.299Z,101724.88
2023-02-22T07:56:48.430Z,101722.31
2023-02-22T07:59:20.189Z,101732.16
2023-02-22T08:02:09.839Z,101720.91
2023-02-22T08:04:37.689Z,101716.56
2023-02-22T08:07:06.401Z,101727.06
2023-02-22T08:09:39.552Z,101728.16
2023-02-22T08:12:11.830Z,101730.97
2023-02-22T08:14:39.953Z,101737.22
2023-02-22T08:17:09.007Z,101735.81
2023-02-22T08:19:37.342Z,101735.94
2023-02-22T08:22:04.860Z,101731.69
2023-02-22T08:27:14.843Z,101739.22
2023-02-22T08:29:42.274Z,101733.38
2023-02-22T08:32:11.444Z,101737.78
2023-02-22T08:34:38.727Z,101739.78
2023-02-22T08:37:06.062Z,101736.50
2023-02-22T08:39:45.126Z,101740.16
2023-02-22T08:42:19.211Z,101734.25
2023-02-22T08:44:50.199Z,101725.03
2023-02-22T08:47:28.269Z,101725.44
2023-02-22T08:50:01.626Z,101726.66
2023-02-22T08:52:37.002Z,101727.03
2023-02-22T08:55:11.037Z,101729.75
2023-02-22T08:57:48.308Z,101733.59
2023-02-22T09:00:40.452Z,101722.38
2023-02-22T09:03:23.016Z,101722.75
2023-02-22T09:05:59.204Z,101728.31
2023-02-22T09:08:34.539Z,101727.81
2023-02-22T09:13:53.712Z,101714.66
2023-02-22T09:16:26.111Z,101719.31
2023-02-22T09:19:04.273Z,101712.34
2023-02-22T09:21:42.857Z,101719.34
2023-02-22T09:24:23.666Z,101716.75
2023-02-22T09:27:03.945Z,101714.50
2023-02-22T09:29:42.818Z,101712.94
2023-02-22T09:32:47.131Z,101711.28
2023-02-22T09:35:23.123Z,101723.59
2023-02-22T09:38:08.530Z,101718.50
2023-02-22T09:41:01.215Z,101722.13
2023-02-22T09:44:13.691Z,101721.22
2023-02-22T09:46:57.424Z,101716.19
2023-02-22T09:53:28.837Z,101721.53
2023-02-22T09:56:26.764Z,101725.94
2023-02-22T09:59:04.102Z,101725.81
2023-02-22T10:01:43.677Z,101727.59
2023-02-22T10:07:29.055Z,101728.28
2023-02-22T10:10:15.275Z,101731.66
2023-02-22T10:13:22.334Z,101727.72
2023-02-22T10:16:07.562Z,101725.31
2023-02-22T10:19:14.410Z,101723.88
2023-02-22T10:22:32.974Z,101719.69
2023-02-22T10:25:24.825Z,101717.00
2023-02-22T10:28:21.298Z,101715.72
2023-02-22T10:31:08.583Z,101721.16
2023-02-22T10:33:55.809Z,101728.53
2023-02-22T10:36:48.424Z,101723.13
2023-02-22T10:39:36.924Z,101726.63
2023-02-22T10:42:34.244Z,101722.28
2023-02-22T10:45:34.776Z,101728.31
2023-02-22T10:48:18.781Z,101726.19
2023-02-22T10:56:57.272Z,101731.53
2023-02-22T10:59:36.462Z,101729.28
2023-02-22T11:02:15.711Z,101726.72
2023-02-22T11:05:07.019Z,101725.38
2023-02-22T11:07:48.727Z,101721.97
2023-02-22T11:10:51.304Z,101724.84
2023-02-22T11:13:45.284Z,101713.44
2023-02-22T11:16:36.875Z,101710.84
2023-02-22T11:19:26.793Z,101713.44
2023-02-22T11:22:19.859Z,101717.03
2023-02-22T11:25:07.737Z,101717.88
2023-02-22T11:28:03.267Z,101710.88
2023-02-22T11:30:36.409Z,101712.66
2023-02-22T11:33:33.684Z,101697.69
2023-02-22T11:36:11.384Z,101704.72
2023-02-22T11:39:00.543Z,101698.56
2023-02-22T11:41:36.162Z,101697.56
2023-02-22T11:44:32.844Z,101688.75
2023-02-22T11:47:07.454Z,101684.31
2023-02-22T11:53:13.547Z,101677.84
2023-02-22T11:56:40.730Z,101676.13
2023-02-22T11:59:34.858Z,101680.50
2023-02-22T12:03:01.133Z,101670.69
2023-02-22T12:05:37.409Z,101670.47
2023-02-22T12:08:54.063Z,101664.16
2023-02-22T12:11:43.516Z,101656.16
2023-02-22T12:14:39.220Z,101662.50
2023-02-22T12:17:21.910Z,101660.16
2023-02-22T12:23:27.473Z,101645.13
2023-02-22T12:26:11.717Z,101641.16
2023-02-22T12:29:09.270Z,101636.56
2023-02-22T12:31:38.836Z,101629.69
2023-02-22T12:34:40.269Z,101623.53
2023-02-22T12:37:19.360Z,101628.91
2023-02-22T12:40:27.946Z,101629.94
2023-02-22T12:43:34.630Z,101620.50
2023-02-22T12:46:21.667Z,101634.03
2023-02-22T12:49:38.514Z,101620.38
2023-02-22T12:52:50.886Z,101622.13
2023-02-22T12:59:04.195Z,101610.38
2023-02-22T13:01:51.216Z,101621.97
2023-02-22T13:04:21.306Z,101612.47
2023-02-22T13:07:27.628Z,101612.97
2023-02-22T13:10:31.389Z,101614.81
2023-02-22T13:13:39.663Z,101597.16
2023-02-22T13:16:25.508Z,101601.56
2023-02-22T13:19:17.795Z,101588.28
2023-02-22T13:22:06.812Z,101585.03
2023-02-22T13:24:57.226Z,101575.31
2023-02-22T13:27:37.628Z,101580.22
2023-02-22T13:30:36.097Z,101574.09
2023-02-22T13:36:33.820Z,101567.88
2023-02-22T13:39:36.352Z,101572.63
2023-02-22T13:42:43.932Z,101565.06
2023-02-22T13:45:34.373Z,101566.28
2023-02-22T13:48:37.618Z,101560.28
2023-02-22T13:51:54.267Z,101551.63
2023-02-22T13:54:56.883Z,101554.00
2023-02-22T13:58:07.266Z,101546.78
2023-02-22T14:00:54.374Z,101546.78
2023-02-22T14:03:44.328Z,101547.22
2023-02-22T14:06:45.658Z,101541.13
2023-02-22T14:09:54.929Z,101547.50
2023-02-22T14:15:29.952Z,101532.09
2023-02-22T14:18:21.737Z,101535.56
2023-02-22T14:21:26.784Z,101530.28
2023-02-22T14:24:26.119Z,101534.97
2023-02-22T14:27:18.672Z,101533.72
2023-02-22T14:30:03.138Z,101522.81
2023-02-22T14:32:42.294Z,101519.94
2023-02-22T14:35:27.418Z,101527.06
2023-02-22T14:38:08.075Z,101524.81
2023-02-22T14:46:45.190Z,101525.31
2023-02-22T14:49:26.423Z,101524.53
2023-02-22T14:52:14.441Z,101524.72
2023-02-22T14:55:55.778Z,101522.22
2023-02-22T14:58:38.519Z,101525.06
2023-02-22T15:01:55.215Z,101531.03
2023-02-22T15:04:35.590Z,101515.72
2023-02-22T15:07:37.265Z,101516.94
2023-02-22T15:10:30.810Z,101522.25
2023-02-22T15:16:08.197Z,101517.16
2023-02-22T15:18:50.818Z,101514.47
2023-02-22T15:21:31.934Z,101525.28
2023-02-22T15:27:03.050Z,101528.84
2023-02-22T15:29:52.675Z,101525.38
2023-02-22T15:33:02.613Z,101521.00
2023-02-22T15:35:58.208Z,101521.88
2023-02-22T15:38:43.743Z,101525.44
2023-02-22T15:41:28.171Z,101524.53
2023-02-22T15:44:22.756Z,101519.28
2023-02-22T15:47:01.430Z,101532.16
2023-02-22T15:49:48.467Z,101529.72
2023-02-22T15:52:42.111Z,101531.44
2023-02-22T15:55:31.501Z,101533.03
2023-02-22T15:58:36.651Z,101530.56
2023-02-22T16:01:19.230Z,101535.75
2023-02-22T16:03:56.891Z,101533.94
2023-02-22T16:06:39.038Z,101538.91
2023-02-22T16:09:36.405Z,101535.59
2023-02-22T16:12:24.309Z,101526.47
2023-02-22T16:14:54.739Z,101537.91
2023-02-22T16:17:56.099Z,101538.03
2023-02-22T16:20:36.412Z,101535.28
2023-02-22T16:23:36.380Z,101531.63
2023-02-22T16:26:33.521Z,101529.88
2023-02-22T16:31:55.316Z,101525.03
2023-02-22T16:34:26.076Z,101527.06
2023-02-22T16:36:59.378Z,101530.56
2023-02-22T16:39:40.840Z,101534.72
2023-02-22T16:45:15.794Z,101526.88
2023-02-22T16:47:59.997Z,101526.75
2023-02-22T16:50:33.244Z,101528.59
2023-02-22T16:53:11.304Z,101531.88
2023-02-22T16:55:38.834Z,101541.47
2023-02-22T16:58:25.438Z,101536.28
2023-02-22T17:01:01.291Z,101541.22
2023-02-22T17:03:29.788Z,101547.47
2023-02-22T17:06:02.692Z,101544.00
2023-02-22T17:08:52.528Z,101547.34
2023-02-22T17:11:38.172Z,101551.78
2023-02-22T17:17:06.936Z,101552.34
2023-02-22T17:19:51.296Z,101555.00
2023-02-22T17:22:27.511Z,101561.09
2023-02-22T17:25:10.279Z,101561.84
2023-02-22T17:27:46.539Z,101561.84
2023-02-22T17:30:26.460Z,101568.59
2023-02-22T17:33:03.888Z,101566.06
2023-02-22T17:35:49.572Z,101573.03
2023-02-22T17:38:28.188Z,101571.03
2023-02-22T17:41:06.842Z,101574.28
2023-02-22T17:43:47.484Z,101582.59
2023-02-22T17:46:21.094Z,101579.91
2023-02-22T17:55:02.436Z,101594.59
2023-02-22T17:57:47.445Z,101591.72
2023-02-22T18:00:35.595Z,101597.63
2023-02-22T18:03:19.799Z,101602.94
2023-02-22T18:06:37.202Z,101608.38
2023-02-22T18:12:13.757Z,101614.13
2023-02-22T18:14:53.450Z,101620.28
2023-02-22T18:17:23.783Z,101612.59
2023-02-22T18:19:56.530Z,101616.00
2023-02-22T18:22:35.128Z,101614.25
2023-02-22T18:25:16.913Z,101607.22
2023-02-22T18:27:57.184Z,101608.94
2023-02-22T18:30:24.985Z,101616.88
2023-02-22T18:33:01.016Z,101616.00
2023-02-22T18:35:37.493Z,101620.50
2023-02-22T18:38:14.896Z,101615.94
2023-02-22T18:40:55.429Z,101616.03
2023-02-22T18:46:25.206Z,101612.50
2023-02-22T18:49:08.074Z,101606.22
2023-02-22T18:51:40.422Z,101613.19
2023-02-22T18:54:18.567Z,101614.19
2023-02-22T18:56:55.168Z,101620.19
2023-02-22T18:59:26.044Z,101606.16
2023-02-22T19:02:09.040Z,101610.50
2023-02-22T19:04:44.523Z,101606.06
2023-02-22T19:07:29.145Z,101609.66
2023-02-22T19:10:07.319Z,101607.06
2023-02-22T19:12:43.982Z,101605.97
2023-02-22T19:15:13.277Z,101613.81
2023-02-22T19:17:46.379Z,101608.56
2023-02-22T19:20:13.842Z,101613.88
2023-02-22T19:22:48.220Z,101613.81
2023-02-22T19:25:18.479Z,101609.53
2023-02-22T19:27:51.665Z,101614.84
2023-02-22T19:30:21.949Z,101615.78
2023-02-22T19:32:54.862Z,101608.78
2023-02-22T19:35:33.331Z,101616.66
2023-02-22T19:38:00.813Z,101619.31
2023-02-22T19:40:32.736Z,101612.31
2023-02-22T19:43:14.701Z,101612.34
2023-02-22T19:45:55.122Z,101608.69
2023-02-22T19:48:26.002Z,101609.66
2023-02-22T19:51:02.557Z,101606.31
2023-02-22T19:53:34.478Z,101610.56
2023-02-22T19:56:17.534Z,101611.41
2023-02-22T19:58:48.652Z,101611.38
2023-02-22T20:01:28.706Z,101605.19
2023-02-22T20:04:13.630Z,101608.66
2023-02-22T20:07:07.327Z,101606.91
2023-02-22T20:09:44.638Z,101600.69
2023-02-22T20:12:37.397Z,101597.09
2023-02-22T20:15:22.470Z,101592.66
2023-02-22T20:17:58.477Z,101597.81
2023-02-22T20:20:54.199Z,101601.38
2023-02-22T20:23:40.511Z,101603.94
2023-02-22T20:26:27.410Z,101599.56
2023-02-22T20:29:01.288Z,101600.41
2023-02-22T20:31:57.173Z,101599.38
2023-02-22T20:34:44.914Z,101604.56
2023-02-22T20:37:16.930Z,101602.81
2023-02-22T20:39:54.331Z,101600.22
2023-02-22T20:42:22.758Z,101601.97
2023-02-22T20:45:00.196Z,101603.69
2023-02-22T20:47:39.318Z,101601.94
2023-02-22T20:50:14.993Z,101601.91
2023-02-22T20:52:48.901Z,101598.44
2023-02-22T20:55:25.313Z,101601.75
2023-02-22T20:57:57.681Z,101603.66
2023-02-22T21:00:28.942Z,101604.66
2023-02-22T21:05:46.804Z,101610.72
2023-02-22T21:08:17.777Z,101608.09
2023-02-22T21:10:52.363Z,101606.41
2023-02-22T21:13:30.989Z,101610.66
2023-02-22T21:16:02.624Z,101615.88
2023-02-22T21:18:33.730Z,101613.28
2023-02-22T21:21:19.148Z,101607.09
2023-02-22T21:23:55.169Z,101612.41
2023-02-22T21:26:27.377Z,101610.66
2023-02-22T21:29:09.483Z,101603.63
2023-02-22T21:31:37.593Z,101604.56
2023-02-22T21:34:07.995Z,101598.44
2023-02-22T21:36:39.142Z,101599.34
2023-02-22T21:39:20.918Z,101594.94
2023-02-22T21:41:59.888Z,101597.50
2023-02-22T21:44:30.542Z,101603.53
2023-02-22T21:49:42.550Z,101591.28
2023-02-22T21:52:12.789Z,101579.06
2023-02-22T21:54:43.573Z,101585.13
2023-02-22T21:57:15.102Z,101576.41
2023-02-22T21:59:51.424Z,101573.69
2023-02-22T22:02:40.291Z,101569.25
2023-02-22T22:08:07.534Z,101564.84
2023-02-22T22:10:40.181Z,101557.78
2023-02-22T22:13:20.646Z,101560.31
2023-02-22T22:16:34.575Z,101559.50
2023-02-22T22:19:33.900Z,101560.25
2023-02-22T22:22:08.473Z,101555.88
2023-02-22T22:24:44.643Z,101558.44
2023-02-22T22:27:15.204Z,101550.56
2023-02-22T22:29:50.906Z,101548.69
2023-02-22T22:32:44.907Z,101546.03
2023-02-22T22:35:18.207Z,101549.41
2023-02-22T22:37:56.995Z,101538.06
2023-02-22T22:40:26.091Z,101539.69
2023-02-22T22:42:53.655Z,101535.28
2023-02-22T22:45:31.508Z,101537.09
2023-02-22T22:48:09.923Z,101536.06
2023-02-22T22:50:41.811Z,101525.56
2023-02-22T22:55:53.237Z,101517.75
2023-02-22T22:58:28.786Z,101514.19
2023-02-22T23:01:02.836Z,101506.28
2023-02-22T23:03:43.667Z,101508.88
2023-02-22T23:06:15.811Z,101504.44
2023-02-22T23:08:45.782Z,101502.69
2023-02-22T23:11:13.567Z,101501.69
2023-02-22T23:13:44.012Z,101497.31
2023-02-22T23:21:45.360Z,101498.91
2023-02-22T23:24:23.671Z,101499.84
2023-02-22T23:27:17.529Z,101504.06
2023-02-22T23:29:49.865Z,101494.47
2023-02-22T23:32:24.967Z,101502.31
2023-02-22T23:35:13.135Z,101490.16
2023-02-22T23:38:17.867Z,101480.44
2023-02-22T23:41:07.689Z,101479.53
2023-02-22T23:43:44.644Z,101472.56
2023-02-22T23:46:33.387Z,101467.44
2023-02-22T23:49:02.639Z,101470.81
2023-02-22T23:51:39.671Z,101469.94
2023-02-22T23:54:12.680Z,101465.47
2023-02-22T23:56:56.009Z,101469.91
2023-02-22T23:59:32.823Z,101463.72
